Time;durP1;ratioP1;P1;durP2;ratioP2;P2;SDS_P1;SDS_P2;PMS_P1;PMS_P2;Temp;Humidity;BMP_temperature;BMP_pressure;BME280_temperature;BME280_humidity;BME280_pressure;Samples;Min_cycle;Max_cycle;Signal;HPM_P1;HPM_P2
2022/07/28 00:00:25;;;;;;;1.50;0.70;;;;;25.40;100882.00;;;;2087294;28;20285;-53
2022/07/28 00:01:25;;;;;;;0.87;0.50;;;;;25.40;100889.00;;;;2087054;28;20217;-53
2022/07/28 00:02:25;;;;;;;1.30;0.60;;;;;25.40;100890.00;;;;2086785;28;20224;-52
2022/07/28 00:03:26;;;;;;;1.00;0.60;;;;;25.40;100892.00;;;;2087136;28;20233;-53
2022/07/28 00:04:26;;;;;;;1.00;0.57;;;;;25.40;100859.00;;;;2086992;28;20281;-53
2022/07/28 00:05:26;;;;;;;1.30;0.60;;;;;25.40;100886.00;;;;2087052;28;20208;-53
2022/07/28 00:06:27;;;;;;;2.90;0.50;;;;;25.40;100892.00;;;;2086847;28;20716;-53
2022/07/28 00:07:27;;;;;;;0.83;0.53;;;;;25.40;100885.00;;;;2085982;28;20642;-53
2022/07/28 00:08:27;;;;;;;0.90;0.60;;;;;25.40;100894.00;;;;2086858;28;20572;-53
2022/07/28 00:09:28;;;;;;;0.93;0.60;;;;;25.40;100886.00;;;;2087004;28;20576;-53
2022/07/28 00:10:28;;;;;;;1.03;0.60;;;;;25.40;100884.00;;;;2086987;28;20209;-53
2022/07/28 00:11:28;;;;;;;0.97;0.60;;;;;25.40;100885.00;;;;2086774;28;20209;-53
2022/07/28 00:12:29;;;;;;;1.10;0.60;;;;;25.40;100881.00;;;;2086855;28;20274;-53
2022/07/28 00:13:29;;;;;;;1.70;0.77;;;;;25.40;100886.00;;;;2083242;28;20609;-53
2022/07/28 00:14:29;;;;;;;1.00;0.40;;;;;25.40;100882.00;;;;2078442;28;20674;-53
2022/07/28 00:15:30;;;;;;;0.90;0.60;;;;;25.40;100885.00;;;;2078954;28;20587;-53
2022/07/28 00:16:30;;;;;;;0.80;0.50;;;;;25.40;100884.00;;;;2078433;28;20271;-53
2022/07/28 00:17:30;;;;;;;1.07;0.50;;;;;25.40;100882.00;;;;2077833;28;20213;-53
2022/07/28 00:18:31;;;;;;;0.87;0.60;;;;;25.40;100876.00;;;;2078681;28;20288;-53
2022/07/28 00:19:31;;;;;;;1.00;0.60;;;;;25.40;100882.00;;;;2078079;28;20213;-53
2022/07/28 00:20:31;;;;;;;0.93;0.50;;;;;25.40;100872.00;;;;2078091;28;20233;-53
2022/07/28 00:21:32;;;;;;;0.90;0.60;;;;;25.40;100879.00;;;;2078597;28;20213;-54
2022/07/28 00:22:32;;;;;;;1.53;0.67;;;;;25.40;100880.00;;;;2078871;28;20233;-53
2022/07/28 00:23:32;;;;;;;1.90;0.70;;;;;25.30;100879.00;;;;2078467;28;20214;-53
2022/07/28 00:24:33;;;;;;;1.70;0.70;;;;;25.30;100883.00;;;;2077927;28;20217;-53
2022/07/28 00:25:33;;;;;;;0.70;0.50;;;;;25.40;100860.00;;;;2078331;28;20324;-53
2022/07/28 00:26:34;;;;;;;0.80;0.70;;;;;25.30;100884.00;;;;2078522;28;20698;-53
2022/07/28 00:27:34;;;;;;;0.80;0.60;;;;;25.40;100880.00;;;;2077688;28;20732;-53
2022/07/28 00:28:35;;;;;;;1.20;0.60;;;;;25.30;100881.00;;;;2078636;28;20225;-53
2022/07/28 00:29:35;;;;;;;0.77;0.50;;;;;25.30;100874.00;;;;2078687;28;20277;-53
2022/07/28 00:30:35;;;;;;;0.80;0.50;;;;;25.30;100876.00;;;;2078540;28;20448;-53
2022/07/28 00:31:36;;;;;;;1.43;0.60;;;;;25.30;100883.00;;;;2077742;28;20248;-53
2022/07/28 00:32:36;;;;;;;0.90;0.50;;;;;25.30;100883.00;;;;2078102;28;20322;-53
2022/07/28 00:33:37;;;;;;;1.20;0.67;;;;;25.40;100869.00;;;;2078626;28;20225;-53
2022/07/28 00:34:37;;;;;;;0.80;0.50;;;;;25.30;100885.00;;;;2078593;28;20306;-52
2022/07/28 00:35:37;;;;;;;0.80;0.50;;;;;25.30;100882.00;;;;2078204;28;20213;-58
2022/07/28 00:36:38;;;;;;;0.80;0.60;;;;;25.40;100876.00;;;;2078640;28;20927;-57
2022/07/28 00:37:38;;;;;;;0.70;0.40;;;;;25.30;100867.00;;;;2077691;28;20221;-56
2022/07/28 00:38:39;;;;;;;1.20;0.50;;;;;25.30;100868.00;;;;2078508;28;20221;-56
2022/07/28 00:39:39;;;;;;;1.17;0.60;;;;;25.30;100877.00;;;;2077868;28;20597;-54
2022/07/28 00:42:00;;;;;;;1.13;0.50;;;;;25.30;100870.00;;;;2083206;28;20221;-53
2022/07/28 00:43:00;;;;;;;1.00;0.67;;;;;25.30;100874.00;;;;2086744;28;20209;-53
2022/07/28 00:44:01;;;;;;;1.70;0.70;;;;;25.30;100875.00;;;;2086882;28;20471;-53
2022/07/28 00:45:02;;;;;;;1.13;0.60;;;;;25.30;100869.00;;;;2086644;28;20256;-53
2022/07/28 00:46:02;;;;;;;1.10;0.50;;;;;25.30;100869.00;;;;2086627;28;20606;-54
2022/07/28 00:47:02;;;;;;;0.90;0.67;;;;;25.30;100874.00;;;;2086719;28;20223;-52
2022/07/28 00:48:03;;;;;;;0.80;0.70;;;;;25.40;100860.00;;;;2085858;28;20251;-53
2022/07/28 00:49:03;;;;;;;0.80;0.53;;;;;25.30;100862.00;;;;2086720;28;20238;-53
2022/07/28 00:50:04;;;;;;;0.93;0.53;;;;;25.30;100864.00;;;;2086056;28;20217;-53
2022/07/28 00:51:06;;;;;;;1.20;0.70;;;;;25.30;100863.00;;;;2086230;28;20212;-53
2022/07/28 00:52:07;;;;;;;1.37;0.90;;;;;25.30;100868.00;;;;2085709;28;20456;-53
2022/07/28 00:53:08;;;;;;;1.20;0.80;;;;;25.30;100875.00;;;;2078606;28;20456;-53
2022/07/28 00:54:08;;;;;;;0.80;0.60;;;;;25.30;100860.00;;;;2077929;28;20480;-53
2022/07/28 00:55:09;;;;;;;1.03;0.60;;;;;25.30;100864.00;;;;2078610;28;20217;-53
2022/07/28 00:56:09;;;;;;;0.90;0.70;;;;;25.30;100864.00;;;;2077642;28;20308;-53
2022/07/28 00:57:09;;;;;;;1.20;0.60;;;;;25.30;100868.00;;;;2077841;28;20424;-53
2022/07/28 00:58:10;;;;;;;1.23;0.70;;;;;25.30;100862.00;;;;2077576;28;20212;-53
2022/07/28 00:59:10;;;;;;;0.77;0.53;;;;;25.30;100890.00;;;;2078579;28;20677;-53
2022/07/28 01:00:11;;;;;;;0.80;0.50;;;;;25.30;100856.00;;;;2078089;28;20712;-58
2022/07/28 01:01:14;;;;;;;0.90;0.60;;;;;25.30;100863.00;;;;2078464;28;20220;-56
2022/07/28 01:02:15;;;;;;;0.93;0.63;;;;;25.30;100856.00;;;;2083132;28;20323;-53
2022/07/28 01:03:15;;;;;;;1.00;0.53;;;;;25.30;100863.00;;;;2085992;28;20443;-53
2022/07/28 01:04:17;;;;;;;0.90;0.60;;;;;25.30;100856.00;;;;2086055;28;20213;-53
2022/07/28 01:05:17;;;;;;;0.83;0.50;;;;;25.30;100844.00;;;;2086617;28;20216;-53
2022/07/28 01:06:30;;;;;;;1.17;0.50;;;;;25.30;100854.00;;;;2077460;28;20639;-53
2022/07/28 01:07:57;;;;;;;0.95;0.50;;;;;25.30;100860.00;;;;2077087;28;20209;-53
2022/07/28 01:09:19;;;;;;;1.33;0.70;;;;;25.30;100862.00;;;;2082502;28;20287;-54
2022/07/28 01:10:36;;;;;;;0.93;0.60;;;;;25.30;100859.00;;;;2085947;28;20462;-53
2022/07/28 01:11:55;;;;;;;0.70;0.50;;;;;25.30;100861.00;;;;2085737;28;20447;-53
2022/07/28 01:13:08;;;;;;;1.35;0.75;;;;;25.30;100855.00;;;;2085009;28;20227;-53
2022/07/28 01:14:44;;;;;;;1.10;0.50;;;;;25.30;100839.00;;;;2086116;28;20215;-53
2022/07/28 01:15:50;;;;;;;0.90;0.60;;;;;25.30;100855.00;;;;2076308;28;21002;-54
2022/07/28 01:16:59;;;;;;;0.80;0.50;;;;;25.30;100855.00;;;;2063620;28;20272;-53
2022/07/28 01:18:04;;;;;;;0.80;0.50;;;;;25.30;100857.00;;;;2071417;28;20466;-53
2022/07/28 01:19:09;;;;;;;1.00;0.53;;;;;25.30;100847.00;;;;2078991;28;21327;-53
2022/07/28 01:20:20;;;;;;;1.05;0.60;;;;;25.30;100858.00;;;;2084537;28;20458;-53
2022/07/28 01:21:24;;;;;;;0.80;0.60;;;;;25.30;100843.00;;;;2077351;28;20219;-54
2022/07/28 01:22:26;;;;;;;1.08;0.70;;;;;25.30;100833.00;;;;2078143;28;20459;-53
2022/07/28 01:23:33;;;;;;;1.15;0.52;;;;;25.30;100839.00;;;;2085657;28;20267;-53
2022/07/28 01:24:56;;;;;;;2.00;0.70;;;;;25.30;100855.00;;;;2085525;28;20224;-53
2022/07/28 01:26:30;;;;;;;1.10;0.60;;;;;25.30;100544.00;;;;2085381;28;20217;-53
2022/07/28 01:28:08;;;;;;;1.40;0.60;;;;;25.30;100850.00;;;;2075661;28;20220;-53
2022/07/28 01:29:34;;;;;;;0.90;0.50;;;;;25.30;100845.00;;;;2076970;28;20217;-52
2022/07/28 01:30:40;;;;;;;0.87;0.57;;;;;25.30;100845.00;;;;2073193;28;20449;-53
2022/07/28 01:32:00;;;;;;;1.60;0.60;;;;;25.30;100852.00;;;;2083754;28;20463;-52
2022/07/28 01:33:22;;;;;;;0.70;0.50;;;;;25.30;100813.00;;;;2083260;28;20451;-53
2022/07/28 01:34:29;;;;;;;1.30;0.50;;;;;25.30;100849.00;;;;2079975;28;20446;-53
2022/07/28 01:35:37;;;;;;;0.85;0.55;;;;;25.30;100847.00;;;;2077582;28;20882;-53
2022/07/28 01:36:54;;;;;;;1.30;0.67;;;;;25.30;100844.00;;;;2069666;28;20316;-53
2022/07/28 01:37:56;;;;;;;0.80;0.40;;;;;25.30;100806.00;;;;2069480;28;21001;-53
2022/07/28 01:38:57;;;;;;;1.10;0.60;;;;;25.30;100844.00;;;;2078656;28;20304;-53
2022/07/28 01:39:59;;;;;;;0.80;0.47;;;;;25.30;100844.00;;;;2075925;28;20452;-53
2022/07/28 01:41:00;;;;;;;0.97;0.70;;;;;25.30;100843.00;;;;2087293;28;20220;-53
2022/07/28 01:42:00;;;;;;;0.90;0.57;;;;;25.30;100850.00;;;;2079067;28;20448;-53
2022/07/28 01:43:03;;;;;;;0.97;0.60;;;;;25.30;100836.00;;;;2079060;28;20225;-53
2022/07/28 01:44:07;;;;;;;0.90;0.80;;;;;25.30;100813.00;;;;2079263;28;20364;-52
2022/07/28 01:45:08;;;;;;;0.70;0.50;;;;;25.30;100843.00;;;;2087314;28;20547;-52
2022/07/28 01:46:08;;;;;;;1.20;0.77;;;;;25.30;100849.00;;;;2071021;28;20457;-53
2022/07/28 01:47:08;;;;;;;0.80;0.57;;;;;25.30;100828.00;;;;2078940;28;20321;-53
2022/07/28 01:48:09;;;;;;;1.00;0.70;;;;;25.30;100839.00;;;;2078113;28;20206;-52
2022/07/28 01:49:10;;;;;;;1.23;0.63;;;;;25.30;100843.00;;;;2065518;28;20226;-52
2022/07/28 01:50:11;;;;;;;0.80;0.53;;;;;25.30;100839.00;;;;2071207;28;20642;-52
2022/07/28 01:51:11;;;;;;;0.90;0.60;;;;;25.30;100835.00;;;;2070911;28;20434;-52
2022/07/28 01:52:11;;;;;;;0.70;0.47;;;;;25.30;100837.00;;;;2075157;28;20490;-52
2022/07/28 01:53:12;;;;;;;1.20;0.53;;;;;25.30;100828.00;;;;2067514;28;20206;-52
2022/07/28 01:54:13;;;;;;;1.17;0.60;;;;;25.30;100836.00;;;;2078172;28;20685;-52
2022/07/28 01:55:13;;;;;;;1.03;0.50;;;;;25.30;100833.00;;;;2075817;28;20480;-52
2022/07/28 01:56:14;;;;;;;1.00;0.50;;;;;25.30;100826.00;;;;2076389;28;20221;-52
2022/07/28 01:57:14;;;;;;;0.90;0.53;;;;;25.30;100829.00;;;;2077971;28;20316;-52
2022/07/28 01:58:17;;;;;;;0.90;0.50;;;;;25.30;100797.00;;;;2070658;28;20997;-52
2022/07/28 01:59:17;;;;;;;1.00;0.50;;;;;25.20;100839.00;;;;2070273;28;20218;-52
2022/07/28 02:00:18;;;;;;;0.80;0.40;;;;;25.20;100831.00;;;;2070774;28;20453;-52
2022/07/28 02:01:18;;;;;;;1.40;0.57;;;;;25.20;100836.00;;;;2078639;28;20224;-52
2022/07/28 02:02:18;;;;;;;0.90;0.60;;;;;25.20;100839.00;;;;2069546;28;20215;-52
2022/07/28 02:03:19;;;;;;;0.70;0.50;;;;;25.20;100838.00;;;;2071878;28;20316;-52
2022/07/28 02:04:20;;;;;;;1.20;0.50;;;;;25.20;100830.00;;;;2070835;28;20252;-52
2022/07/28 02:05:20;;;;;;;1.30;0.60;;;;;25.20;100838.00;;;;2070579;28;20256;-53
2022/07/28 02:06:21;;;;;;;0.90;0.50;;;;;25.20;100829.00;;;;2070683;28;20548;-53
2022/07/28 02:07:21;;;;;;;0.80;0.50;;;;;25.20;100829.00;;;;2068769;28;20293;-52
2022/07/28 02:08:22;;;;;;;1.03;0.70;;;;;25.20;100828.00;;;;2078516;28;20240;-53
2022/07/28 02:09:22;;;;;;;0.80;0.50;;;;;25.20;100828.00;;;;2070675;28;20218;-53
2022/07/28 02:10:22;;;;;;;1.53;0.60;;;;;25.20;100821.00;;;;2062380;28;20222;-52
2022/07/28 02:11:41;;;;;;;0.80;0.50;;;;;25.20;100802.00;;;;2076964;28;20222;-52
2022/07/28 02:12:43;;;;;;;1.40;0.50;;;;;25.20;100824.00;;;;2078467;28;20229;-52
2022/07/28 02:13:44;;;;;;;0.97;0.60;;;;;25.20;100647.00;;;;2081066;28;20563;-52
2022/07/28 02:14:47;;;;;;;1.70;0.70;;;;;25.20;100822.00;;;;2086191;28;20451;-53
2022/07/28 02:15:48;;;;;;;1.10;0.60;;;;;25.20;100813.00;;;;2071010;28;20217;-53
2022/07/28 02:16:53;;;;;;;0.87;0.50;;;;;25.20;100813.00;;;;2070572;28;21006;-53
2022/07/28 02:17:53;;;;;;;2.17;0.60;;;;;25.20;100807.00;;;;2074201;28;20217;-53
2022/07/28 02:18:54;;;;;;;1.00;0.50;;;;;25.20;100813.00;;;;2073058;28;20220;-53
2022/07/28 02:19:55;;;;;;;1.23;0.60;;;;;25.20;100817.00;;;;2076862;28;20217;-53
2022/07/28 02:20:55;;;;;;;0.90;0.40;;;;;25.20;100788.00;;;;2079358;28;20205;-52
2022/07/28 02:21:55;;;;;;;1.20;0.67;;;;;25.20;100819.00;;;;2068979;28;20694;-53
2022/07/28 02:22:56;;;;;;;1.70;0.93;;;;;25.20;100812.00;;;;2068667;28;20663;-53
2022/07/28 02:23:57;;;;;;;0.80;0.53;;;;;25.20;100813.00;;;;2081979;28;20559;-53
2022/07/28 02:24:57;;;;;;;0.90;0.57;;;;;25.20;100818.00;;;;2086665;28;20518;-53
2022/07/28 02:25:58;;;;;;;0.90;0.70;;;;;25.20;100815.00;;;;2070499;28;20226;-53
2022/07/28 02:27:00;;;;;;;0.80;0.53;;;;;25.20;100813.00;;;;2070538;28;20218;-53
2022/07/28 02:28:04;;;;;;;1.33;0.50;;;;;25.20;100809.00;;;;2077769;28;20848;-53
2022/07/28 02:29:05;;;;;;;0.90;0.60;;;;;24.50;100807.00;;;;2087027;28;20466;-53
2022/07/28 02:30:10;;;;;;;1.27;0.50;;;;;25.20;100777.00;;;;2087649;28;20298;-53
2022/07/28 02:31:18;;;;;;;1.02;0.57;;;;;25.20;100799.00;;;;2086827;28;20444;-53
2022/07/28 02:32:26;;;;;;;1.03;0.63;;;;;25.20;100814.00;;;;2086708;28;20219;-53
2022/07/28 02:33:26;;;;;;;0.85;0.60;;;;;25.20;100809.00;;;;2084372;28;20459;-54
2022/07/28 02:34:26;;;;;;;1.33;0.53;;;;;25.20;100809.00;;;;2070703;28;20742;-53
2022/07/28 02:35:43;;;;;;;1.00;0.60;;;;;24.50;100776.00;;;;2078491;28;20236;-53
2022/07/28 02:36:52;;;;;;;1.20;0.87;;;;;25.20;100803.00;;;;2078502;28;20217;-53
2022/07/28 02:38:00;;;;;;;0.97;0.50;;;;;25.20;100801.00;;;;2071807;28;20977;-53
2022/07/28 02:39:06;;;;;;;0.95;0.60;;;;;25.20;100798.00;;;;2072405;28;20454;-53
2022/07/28 02:40:09;;;;;;;1.13;0.60;;;;;25.20;100801.00;;;;2079240;28;20392;-53
2022/07/28 02:41:12;;;;;;;1.20;0.60;;;;;25.20;100799.00;;;;2078616;28;20206;-53
2022/07/28 02:42:14;;;;;;;1.03;0.60;;;;;25.20;100802.00;;;;2073382;28;20441;-53
2022/07/28 02:43:16;;;;;;;0.87;0.57;;;;;25.20;100798.00;;;;2054400;28;20455;-53
2022/07/28 02:44:19;;;;;;;1.02;0.70;;;;;25.20;100798.00;;;;2069209;28;20449;-52
2022/07/28 02:45:20;;;;;;;1.03;0.50;;;;;25.20;100807.00;;;;2071484;28;20260;-52
2022/07/28 02:46:31;;;;;;;0.90;0.53;;;;;25.20;100792.00;;;;2086923;28;20451;-52
2022/07/28 02:47:35;;;;;;;1.17;0.57;;;;;25.20;100791.00;;;;2076622;28;20543;-53
2022/07/28 02:48:36;;;;;;;1.10;0.60;;;;;25.20;100799.00;;;;2063701;28;20229;-53
2022/07/28 02:49:36;;;;;;;1.00;0.47;;;;;25.20;100796.00;;;;2068099;28;20923;-52
2022/07/28 02:50:39;;;;;;;0.70;0.43;;;;;25.20;100794.00;;;;2070562;28;20674;-52
2022/07/28 02:51:40;;;;;;;1.20;0.53;;;;;25.20;100794.00;;;;2067578;28;20264;-52
2022/07/28 02:52:40;;;;;;;0.90;0.50;;;;;25.20;100800.00;;;;2070844;28;20453;-52
2022/07/28 02:53:41;;;;;;;1.13;0.60;;;;;25.20;100795.00;;;;2077398;28;20245;-52
2022/07/28 02:54:41;;;;;;;0.90;0.53;;;;;25.20;100790.00;;;;2086064;28;20208;-53
2022/07/28 02:55:43;;;;;;;1.37;0.53;;;;;25.20;100794.00;;;;2083347;28;20209;-52
2022/07/28 02:56:44;;;;;;;1.92;0.70;;;;;25.20;100802.00;;;;2086930;28;20712;-52
2022/07/28 02:57:45;;;;;;;0.75;0.47;;;;;25.20;100789.00;;;;2077922;28;20213;-53
2022/07/28 02:58:45;;;;;;;0.80;0.50;;;;;25.10;100793.00;;;;2070112;28;20256;-52
2022/07/28 02:59:45;;;;;;;0.73;0.50;;;;;25.20;100804.00;;;;2070373;28;20252;-52
2022/07/28 03:00:47;;;;;;;1.10;0.50;;;;;25.20;100796.00;;;;2078372;28;20225;-52
2022/07/28 03:01:48;;;;;;;1.20;0.63;;;;;25.20;100800.00;;;;2078645;28;20256;-52
2022/07/28 03:02:48;;;;;;;1.00;0.50;;;;;25.20;100770.00;;;;2074497;28;20263;-52
2022/07/28 03:03:48;;;;;;;0.80;0.60;;;;;25.20;100802.00;;;;2070254;28;20682;-53
2022/07/28 03:04:58;;;;;;;0.80;0.50;;;;;24.30;100791.00;;;;2070167;28;20293;-52
2022/07/28 03:05:58;;;;;;;0.80;0.50;;;;;25.10;100660.00;;;;2071459;28;20356;-52
2022/07/28 03:06:59;;;;;;;0.80;0.50;;;;;25.10;100789.00;;;;2070953;28;20887;-52
2022/07/28 03:07:59;;;;;;;1.20;0.57;;;;;25.20;100796.00;;;;2076806;28;20601;-54
2022/07/28 03:09:00;;;;;;;1.10;0.60;;;;;25.20;100797.00;;;;2078701;28;20221;-54
2022/07/28 03:10:00;;;;;;;0.90;0.60;;;;;25.20;100793.00;;;;2078456;28;20272;-53
2022/07/28 03:11:11;;;;;;;1.60;0.70;;;;;25.10;100796.00;;;;2078770;28;20221;-53
2022/07/28 03:12:11;;;;;;;0.98;0.68;;;;;25.10;100799.00;;;;2079172;28;20304;-53
2022/07/28 03:13:12;;;;;;;1.27;0.60;;;;;25.20;100799.00;;;;2079049;28;20214;-52
2022/07/28 03:14:12;;;;;;;0.90;0.70;;;;;25.10;100802.00;;;;2079342;28;20213;-52
2022/07/28 03:15:13;;;;;;;0.90;0.50;;;;;25.10;100801.00;;;;2079230;28;20217;-52
2022/07/28 03:16:13;;;;;;;0.90;0.50;;;;;25.20;100801.00;;;;2079296;28;20225;-52
2022/07/28 03:17:14;;;;;;;1.27;0.60;;;;;25.20;100803.00;;;;2078692;28;20459;-53
2022/07/28 03:18:14;;;;;;;0.70;0.50;;;;;25.20;100807.00;;;;2077048;28;20255;-53
2022/07/28 03:19:14;;;;;;;0.80;0.50;;;;;25.10;100806.00;;;;2078724;28;20213;-53
2022/07/28 03:20:15;;;;;;;1.10;0.43;;;;;25.10;100797.00;;;;2079120;28;20268;-52
2022/07/28 03:21:15;;;;;;;1.20;0.57;;;;;25.10;100803.00;;;;2079048;28;20248;-53
2022/07/28 03:22:15;;;;;;;1.00;0.60;;;;;25.10;100798.00;;;;2079086;28;20229;-53
2022/07/28 03:23:16;;;;;;;0.90;0.60;;;;;25.20;100807.00;;;;2079209;28;20221;-52
2022/07/28 03:24:16;;;;;;;1.10;0.67;;;;;25.10;100800.00;;;;2078468;28;20241;-53
2022/07/28 03:25:28;;;;;;;0.80;0.50;;;;;25.10;100797.00;;;;2078540;28;20218;-53
2022/07/28 03:26:35;;;;;;;0.90;0.60;;;;;25.10;100793.00;;;;2078532;28;20213;-52
2022/07/28 03:27:37;;;;;;;1.73;0.67;;;;;25.10;100799.00;;;;2077138;28;20447;-53
2022/07/28 03:28:38;;;;;;;0.83;0.60;;;;;25.10;100801.00;;;;2078603;28;20482;-53
2022/07/28 03:29:39;;;;;;;0.80;0.50;;;;;25.10;100800.00;;;;2080824;28;20973;-53
2022/07/28 03:30:40;;;;;;;0.83;0.57;;;;;25.10;100797.00;;;;2078609;28;20829;-53
2022/07/28 03:31:41;;;;;;;1.15;0.68;;;;;25.10;100802.00;;;;2086349;28;20462;-53
2022/07/28 03:33:00;;;;;;;0.90;0.60;;;;;25.10;100792.00;;;;2086177;28;20209;-52
2022/07/28 03:34:00;;;;;;;1.08;0.65;;;;;25.10;100798.00;;;;2085913;28;20223;-53
2022/07/28 03:35:02;;;;;;;0.70;0.50;;;;;25.10;100797.00;;;;2086737;28;20224;-52
2022/07/28 03:36:05;;;;;;;1.63;0.50;;;;;25.10;100799.00;;;;2086375;28;20220;-52
2022/07/28 03:37:09;;;;;;;0.85;0.40;;;;;25.10;100798.00;;;;2081829;28;21035;-53
2022/07/28 03:38:12;;;;;;;0.90;0.50;;;;;25.10;100808.00;;;;2077148;28;20698;-53
2022/07/28 03:39:14;;;;;;;0.98;0.50;;;;;25.10;100806.00;;;;2070169;28;20875;-52
2022/07/28 03:40:14;;;;;;;1.05;0.60;;;;;25.10;100788.00;;;;2071042;28;20222;-53
2022/07/28 03:41:15;;;;;;;0.87;0.50;;;;;25.10;100808.00;;;;2070446;28;20218;-53
2022/07/28 03:42:18;;;;;;;1.00;0.60;;;;;25.10;100813.00;;;;2078484;28;20205;-52
2022/07/28 03:43:19;;;;;;;0.90;0.57;;;;;25.10;100811.00;;;;2078045;28;20211;-53
2022/07/28 03:44:20;;;;;;;1.30;0.60;;;;;25.10;100813.00;;;;2078478;28;20725;-52
2022/07/28 03:45:20;;;;;;;1.47;0.60;;;;;25.10;100806.00;;;;2078079;28;20225;-52
2022/07/28 03:46:20;;;;;;;0.83;0.60;;;;;25.10;100811.00;;;;2086529;28;20384;-53
2022/07/28 03:47:21;;;;;;;1.00;0.50;;;;;25.10;100809.00;;;;2085940;28;20247;-53
2022/07/28 03:48:27;;;;;;;1.67;0.60;;;;;25.10;100810.00;;;;2087019;28;20624;-53
2022/07/28 03:49:28;;;;;;;1.63;0.60;;;;;25.10;100799.00;;;;2086908;28;20219;-52
2022/07/28 03:50:29;;;;;;;0.90;0.60;;;;;25.10;100803.00;;;;2086925;28;20587;-52
2022/07/28 03:51:30;;;;;;;0.80;0.60;;;;;25.10;100807.00;;;;2086442;28;20243;-53
2022/07/28 03:52:30;;;;;;;1.00;0.50;;;;;25.10;100815.00;;;;2086403;28;20455;-53
2022/07/28 03:53:30;;;;;;;0.80;0.50;;;;;25.10;100809.00;;;;2087052;28;20343;-52
2022/07/28 03:54:31;;;;;;;1.23;0.50;;;;;25.10;100805.00;;;;2087125;28;20216;-52
2022/07/28 03:55:31;;;;;;;1.00;0.80;;;;;25.10;100816.00;;;;2087217;28;20262;-52
2022/07/28 03:56:31;;;;;;;0.77;0.50;;;;;25.10;100811.00;;;;2079382;28;20240;-53
2022/07/28 03:57:32;;;;;;;1.10;0.60;;;;;25.10;100808.00;;;;2085553;28;20212;-52
2022/07/28 03:58:32;;;;;;;1.40;0.63;;;;;25.10;100807.00;;;;2079533;28;20224;-52
2022/07/28 03:59:32;;;;;;;0.90;0.50;;;;;24.20;100829.00;;;;2078373;28;20224;-52
2022/07/28 04:00:33;;;;;;;1.20;0.70;;;;;25.10;100804.00;;;;2078078;28;20213;-53
2022/07/28 04:01:33;;;;;;;0.90;0.60;;;;;25.10;100803.00;;;;2078228;28;20814;-53
2022/07/28 04:02:33;;;;;;;1.30;0.70;;;;;25.10;100806.00;;;;2078830;28;20848;-53
2022/07/28 04:03:34;;;;;;;1.00;0.60;;;;;25.10;100839.00;;;;2078797;28;20639;-52
2022/07/28 04:04:34;;;;;;;1.60;0.80;;;;;25.10;100807.00;;;;2082287;28;20699;-53
2022/07/28 04:05:35;;;;;;;0.80;0.50;;;;;25.10;100810.00;;;;2079972;28;20216;-53
2022/07/28 04:06:35;;;;;;;1.10;0.57;;;;;25.10;100810.00;;;;2086431;28;20238;-53
2022/07/28 04:07:35;;;;;;;0.80;0.40;;;;;25.10;100797.00;;;;2086151;28;20237;-53
2022/07/28 04:08:35;;;;;;;1.07;0.57;;;;;25.10;100797.00;;;;2086436;28;20235;-53
2022/07/28 04:09:36;;;;;;;1.10;0.63;;;;;25.10;100807.00;;;;2078998;28;20213;-53
2022/07/28 04:10:36;;;;;;;1.20;0.67;;;;;24.40;100800.00;;;;2078986;28;20242;-53
2022/07/28 04:11:36;;;;;;;0.90;0.63;;;;;25.10;100804.00;;;;2082171;28;20216;-53
2022/07/28 04:12:51;;;;;;;1.40;0.63;;;;;25.10;100797.00;;;;2086957;28;20321;-53
2022/07/28 04:13:51;;;;;;;1.33;0.60;;;;;25.10;100796.00;;;;2086743;28;20217;-53
2022/07/28 04:14:51;;;;;;;1.00;0.50;;;;;25.10;100796.00;;;;2086130;28;20217;-53
2022/07/28 04:15:52;;;;;;;1.47;0.60;;;;;25.10;100797.00;;;;2086278;28;20205;-53
2022/07/28 04:16:52;;;;;;;1.57;0.63;;;;;25.10;100794.00;;;;2087014;28;20224;-53
2022/07/28 04:17:53;;;;;;;0.90;0.50;;;;;25.10;100818.00;;;;2086310;28;20291;-53
2022/07/28 04:18:53;;;;;;;0.90;0.60;;;;;25.10;100792.00;;;;2086206;28;20327;-53
2022/07/28 04:19:54;;;;;;;0.83;0.60;;;;;25.10;100785.00;;;;2086217;28;20451;-53
2022/07/28 04:20:57;;;;;;;1.30;0.60;;;;;25.10;100789.00;;;;2086000;28;20228;-53
2022/07/28 04:21:57;;;;;;;1.73;0.50;;;;;25.10;100791.00;;;;2087000;28;20670;-53
2022/07/28 04:22:57;;;;;;;1.03;0.40;;;;;25.10;100799.00;;;;2086885;28;20439;-53
2022/07/28 04:23:58;;;;;;;1.10;0.60;;;;;25.10;100796.00;;;;2086714;28;20282;-53
2022/07/28 04:24:58;;;;;;;0.90;0.60;;;;;25.10;100794.00;;;;2086770;28;20633;-53
2022/07/28 04:25:59;;;;;;;1.00;0.50;;;;;25.10;100797.00;;;;2087220;28;20209;-53
2022/07/28 04:26:59;;;;;;;1.10;0.60;;;;;25.10;100793.00;;;;2086702;28;20251;-53
2022/07/28 04:28:01;;;;;;;0.80;0.60;;;;;25.10;100797.00;;;;2077813;28;20217;-53
2022/07/28 04:29:01;;;;;;;2.65;0.70;;;;;25.10;100798.00;;;;2078829;28;20288;-53
2022/07/28 04:30:06;;;;;;;0.70;0.50;;;;;25.10;100789.00;;;;2080763;28;20213;-52
2022/07/28 04:31:06;;;;;;;1.35;0.60;;;;;25.10;100794.00;;;;2087080;28;20236;-53
2022/07/28 04:32:06;;;;;;;0.80;0.50;;;;;25.10;100791.00;;;;2087149;28;20248;-53
2022/07/28 04:33:07;;;;;;;1.30;0.60;;;;;25.10;100797.00;;;;2085957;28;20213;-53
2022/07/28 04:34:07;;;;;;;1.50;0.60;;;;;25.10;100799.00;;;;2086691;28;20811;-53
2022/07/28 04:35:08;;;;;;;1.00;0.50;;;;;25.10;100797.00;;;;2085341;28;20270;-53
2022/07/28 04:36:08;;;;;;;1.30;0.60;;;;;25.10;100801.00;;;;2086328;28;20639;-53
2022/07/28 04:37:09;;;;;;;0.80;0.50;;;;;25.10;100798.00;;;;2086742;28;20231;-53
2022/07/28 04:38:12;;;;;;;0.90;0.67;;;;;25.10;100797.00;;;;2085941;28;20209;-53
2022/07/28 04:39:13;;;;;;;1.25;0.50;;;;;25.10;100789.00;;;;2086745;28;20216;-53
2022/07/28 04:40:13;;;;;;;0.93;0.70;;;;;25.10;100797.00;;;;2086749;28;20232;-53
2022/07/28 04:41:14;;;;;;;0.87;0.60;;;;;25.10;100802.00;;;;2086900;28;20212;-53
2022/07/28 04:42:15;;;;;;;1.03;0.70;;;;;25.10;100799.00;;;;2085916;28;20208;-53
2022/07/28 04:43:15;;;;;;;1.03;0.70;;;;;25.10;100807.00;;;;2086234;28;20215;-53
2022/07/28 04:44:16;;;;;;;1.23;0.60;;;;;25.10;100797.00;;;;2086636;28;20967;-53
2022/07/28 04:45:16;;;;;;;0.80;0.60;;;;;24.80;100803.00;;;;2087103;28;20732;-53
2022/07/28 04:46:16;;;;;;;1.13;0.60;;;;;25.10;100802.00;;;;2087053;28;20209;-53
2022/07/28 04:47:17;;;;;;;1.43;0.70;;;;;25.10;100808.00;;;;2086287;28;20225;-53
2022/07/28 04:48:17;;;;;;;4.43;0.90;;;;;25.10;100808.00;;;;2086379;28;20232;-53
2022/07/28 04:49:17;;;;;;;1.10;0.90;;;;;25.10;100801.00;;;;2086615;28;20213;-53
2022/07/28 04:50:20;;;;;;;0.80;0.50;;;;;25.10;100805.00;;;;2087067;28;20217;-53
2022/07/28 04:51:21;;;;;;;0.93;0.60;;;;;25.10;100799.00;;;;2086456;28;20581;-52
2022/07/28 04:52:22;;;;;;;0.82;0.60;;;;;25.10;100804.00;;;;2086864;28;20459;-53
2022/07/28 04:53:23;;;;;;;1.20;0.60;;;;;25.10;100805.00;;;;2086095;28;20712;-53
2022/07/28 04:54:23;;;;;;;0.80;0.50;;;;;25.10;100804.00;;;;2086041;28;20447;-53
2022/07/28 04:55:24;;;;;;;1.60;0.60;;;;;25.10;100807.00;;;;2086816;28;20252;-52
2022/07/28 04:56:26;;;;;;;1.33;0.60;;;;;25.10;100807.00;;;;2086059;28;20217;-53
2022/07/28 04:57:28;;;;;;;2.28;0.90;;;;;25.10;100811.00;;;;2085270;28;20243;-53
2022/07/28 04:58:29;;;;;;;2.00;0.60;;;;;25.10;100804.00;;;;2086952;28;20698;-52
2022/07/28 04:59:29;;;;;;;0.90;0.60;;;;;25.10;100818.00;;;;2078607;28;20219;-53
2022/07/28 05:00:30;;;;;;;2.73;0.70;;;;;25.10;100803.00;;;;2078488;28;20209;-52
2022/07/28 05:01:30;;;;;;;0.97;0.50;;;;;25.10;100810.00;;;;2078776;28;20213;-53
2022/07/28 05:02:30;;;;;;;1.40;0.70;;;;;25.10;100798.00;;;;2078517;28;20265;-52
2022/07/28 05:03:31;;;;;;;0.90;0.57;;;;;25.10;100812.00;;;;2078398;28;20315;-53
2022/07/28 05:04:31;;;;;;;1.43;0.70;;;;;25.10;100812.00;;;;2078713;28;20629;-53
2022/07/28 05:05:32;;;;;;;1.60;0.70;;;;;25.10;100810.00;;;;2078790;28;20209;-52
2022/07/28 05:06:33;;;;;;;0.90;0.50;;;;;25.10;100812.00;;;;2082472;28;20248;-53
2022/07/28 05:07:36;;;;;;;0.90;0.57;;;;;25.10;100834.00;;;;2077841;28;20214;-53
2022/07/28 05:08:36;;;;;;;0.77;0.60;;;;;25.10;100816.00;;;;2077861;28;20274;-53
2022/07/28 05:09:36;;;;;;;0.97;0.50;;;;;25.10;100807.00;;;;2077896;28;21277;-53
2022/07/28 05:10:37;;;;;;;1.10;0.60;;;;;25.10;100809.00;;;;2078790;28;20283;-53